sensor_id;sensor_type;location;lat;lon;timestamp;P1;durP1;ratioP1;P2;durP2;ratioP2
1682;SDS011;13252;53.596;10.060;2023-05-07T00:01:15;12.77;;;11.47;;
1682;SDS011;13252;53.596;10.060;2023-05-07T00:03:44;12.70;;;11.00;;
1682;SDS011;13252;53.596;10.060;2023-05-07T00:06:13;15.23;;;10.70;;
1682;SDS011;13252;53.596;10.060;2023-05-07T00:08:40;12.30;;;11.03;;
1682;SDS011;13252;53.596;10.060;2023-05-07T00:11:08;11.27;;;9.80;;
1682;SDS011;13252;53.596;10.060;2023-05-07T00:13:37;13.30;;;10.73;;
1682;SDS011;13252;53.596;10.060;2023-05-07T00:16:06;12.90;;;10.50;;
1682;SDS011;13252;53.596;10.060;2023-05-07T00:18:34;12.60;;;11.30;;
1682;SDS011;13252;53.596;10.060;2023-05-07T00:21:02;13.80;;;11.40;;
1682;SDS011;13252;53.596;10.060;2023-05-07T00:23:30;18.67;;;13.00;;
1682;SDS011;13252;53.596;10.060;2023-05-07T00:25:57;12.40;;;10.50;;
1682;SDS011;13252;53.596;10.060;2023-05-07T00:28:25;13.60;;;11.53;;
1682;SDS011;13252;53.596;10.060;2023-05-07T00:30:53;13.67;;;11.60;;
1682;SDS011;13252;53.596;10.060;2023-05-07T00:33:22;11.87;;;10.67;;
1682;SDS011;13252;53.596;10.060;2023-05-07T00:35:49;13.77;;;12.20;;
1682;SDS011;13252;53.596;10.060;2023-05-07T00:38:17;16.10;;;12.07;;
1682;SDS011;13252;53.596;10.060;2023-05-07T00:40:45;12.67;;;11.40;;
1682;SDS011;13252;53.596;10.060;2023-05-07T00:43:12;15.47;;;11.47;;
1682;SDS011;13252;53.596;10.060;2023-05-07T00:45:41;12.57;;;11.30;;
1682;SDS011;13252;53.596;10.060;2023-05-07T00:48:09;14.30;;;12.53;;
1682;SDS011;13252;53.596;10.060;2023-05-07T00:50:38;12.63;;;11.33;;
1682;SDS011;13252;53.596;10.060;2023-05-07T00:53:05;14.53;;;12.77;;
1682;SDS011;13252;53.596;10.060;2023-05-07T00:55:34;15.10;;;12.27;;
1682;SDS011;13252;53.596;10.060;2023-05-07T00:58:03;14.17;;;12.77;;
1682;SDS011;13252;53.596;10.060;2023-05-07T01:00:31;14.23;;;11.90;;
1682;SDS011;13252;53.596;10.060;2023-05-07T01:02:58;12.87;;;11.57;;
1682;SDS011;13252;53.596;10.060;2023-05-07T01:05:27;17.73;;;11.90;;
1682;SDS011;13252;53.596;10.060;2023-05-07T01:07:56;14.03;;;12.60;;
1682;SDS011;13252;53.596;10.060;2023-05-07T01:10:25;14.23;;;11.97;;
1682;SDS011;13252;53.596;10.060;2023-05-07T01:12:53;14.60;;;11.90;;
1682;SDS011;13252;53.596;10.060;2023-05-07T01:15:21;13.20;;;11.80;;
1682;SDS011;13252;53.596;10.060;2023-05-07T01:17:49;14.27;;;11.87;;
1682;SDS011;13252;53.596;10.060;2023-05-07T01:20:23;13.03;;;11.63;;
1682;SDS011;13252;53.596;10.060;2023-05-07T01:22:55;14.47;;;10.97;;
1682;SDS011;13252;53.596;10.060;2023-05-07T01:25:24;12.93;;;11.60;;
1682;SDS011;13252;53.596;10.060;2023-05-07T01:27:55;12.70;;;9.87;;
1682;SDS011;13252;53.596;10.060;2023-05-07T01:30:27;12.73;;;11.00;;
1682;SDS011;13252;53.596;10.060;2023-05-07T01:32:57;12.40;;;11.10;;
1682;SDS011;13252;53.596;10.060;2023-05-07T01:35:27;11.80;;;10.47;;
1682;SDS011;13252;53.596;10.060;2023-05-07T01:37:58;13.00;;;10.90;;
1682;SDS011;13252;53.596;10.060;2023-05-07T01:40:25;13.00;;;10.40;;
1682;SDS011;13252;53.596;10.060;2023-05-07T01:42:54;13.67;;;10.47;;
1682;SDS011;13252;53.596;10.060;2023-05-07T01:45:22;12.10;;;10.90;;
1682;SDS011;13252;53.596;10.060;2023-05-07T01:47:50;12.90;;;10.90;;
1682;SDS011;13252;53.596;10.060;2023-05-07T01:50:18;12.53;;;10.60;;
1682;SDS011;13252;53.596;10.060;2023-05-07T01:52:46;10.73;;;9.63;;
1682;SDS011;13252;53.596;10.060;2023-05-07T01:55:16;12.43;;;11.00;;
1682;SDS011;13252;53.596;10.060;2023-05-07T01:57:43;11.00;;;9.90;;
1682;SDS011;13252;53.596;10.060;2023-05-07T02:00:12;12.27;;;10.97;;
1682;SDS011;13252;53.596;10.060;2023-05-07T02:02:43;11.57;;;10.33;;
1682;SDS011;13252;53.596;10.060;2023-05-07T02:05:24;12.07;;;9.83;;
1682;SDS011;13252;53.596;10.060;2023-05-07T02:07:59;11.90;;;10.47;;
1682;SDS011;13252;53.596;10.060;2023-05-07T02:10:30;12.80;;;10.20;;
1682;SDS011;13252;53.596;10.060;2023-05-07T02:12:58;11.90;;;9.53;;
1682;SDS011;13252;53.596;10.060;2023-05-07T02:15:28;11.20;;;9.40;;
1682;SDS011;13252;53.596;10.060;2023-05-07T02:17:58;11.63;;;9.73;;
1682;SDS011;13252;53.596;10.060;2023-05-07T02:20:27;11.40;;;9.80;;
1682;SDS011;13252;53.596;10.060;2023-05-07T02:22:55;14.30;;;9.40;;
1682;SDS011;13252;53.596;10.060;2023-05-07T02:25:24;13.30;;;10.90;;
1682;SDS011;13252;53.596;10.060;2023-05-07T02:27:53;10.53;;;9.03;;
1682;SDS011;13252;53.596;10.060;2023-05-07T02:30:28;9.57;;;8.57;;
1682;SDS011;13252;53.596;10.060;2023-05-07T02:32:57;12.80;;;9.20;;
1682;SDS011;13252;53.596;10.060;2023-05-07T02:35:25;10.00;;;8.87;;
1682;SDS011;13252;53.596;10.060;2023-05-07T02:37:53;14.73;;;9.43;;
1682;SDS011;13252;53.596;10.060;2023-05-07T02:40:23;10.83;;;9.17;;
1682;SDS011;13252;53.596;10.060;2023-05-07T02:42:51;11.33;;;9.30;;
1682;SDS011;13252;53.596;10.060;2023-05-07T02:45:20;12.83;;;10.87;;
1682;SDS011;13252;53.596;10.060;2023-05-07T02:47:50;15.43;;;11.07;;
1682;SDS011;13252;53.596;10.060;2023-05-07T02:50:19;12.00;;;9.97;;
1682;SDS011;13252;53.596;10.060;2023-05-07T02:52:46;10.97;;;9.73;;
1682;SDS011;13252;53.596;10.060;2023-05-07T02:55:14;11.07;;;9.50;;
1682;SDS011;13252;53.596;10.060;2023-05-07T02:57:42;13.40;;;11.27;;
1682;SDS011;13252;53.596;10.060;2023-05-07T03:00:11;14.33;;;11.13;;
1682;SDS011;13252;53.596;10.060;2023-05-07T03:02:48;12.00;;;10.70;;
1682;SDS011;13252;53.596;10.060;2023-05-07T03:05:16;12.33;;;10.60;;
1682;SDS011;13252;53.596;10.060;2023-05-07T03:07:43;11.17;;;9.77;;
1682;SDS011;13252;53.596;10.060;2023-05-07T03:10:13;12.67;;;10.97;;
1682;SDS011;13252;53.596;10.060;2023-05-07T03:12:41;12.30;;;10.40;;
1682;SDS011;13252;53.596;10.060;2023-05-07T03:15:13;12.33;;;10.80;;
1682;SDS011;13252;53.596;10.060;2023-05-07T03:17:41;12.70;;;10.90;;
1682;SDS011;13252;53.596;10.060;2023-05-07T03:20:10;14.33;;;11.57;;
1682;SDS011;13252;53.596;10.060;2023-05-07T03:22:40;12.50;;;11.30;;
1682;SDS011;13252;53.596;10.060;2023-05-07T03:25:08;16.33;;;12.27;;
1682;SDS011;13252;53.596;10.060;2023-05-07T03:27:36;19.87;;;15.97;;
1682;SDS011;13252;53.596;10.060;2023-05-07T03:30:05;13.23;;;11.73;;
1682;SDS011;13252;53.596;10.060;2023-05-07T03:32:34;12.80;;;10.87;;
1682;SDS011;13252;53.596;10.060;2023-05-07T03:35:05;16.43;;;11.77;;
1682;SDS011;13252;53.596;10.060;2023-05-07T03:37:35;30.53;;;13.10;;
1682;SDS011;13252;53.596;10.060;2023-05-07T03:40:03;12.07;;;10.87;;
1682;SDS011;13252;53.596;10.060;2023-05-07T03:42:40;13.63;;;11.17;;
1682;SDS011;13252;53.596;10.060;2023-05-07T03:45:08;13.00;;;11.60;;
1682;SDS011;13252;53.596;10.060;2023-05-07T03:47:39;11.93;;;10.47;;
1682;SDS011;13252;53.596;10.060;2023-05-07T03:50:09;13.30;;;11.40;;
1682;SDS011;13252;53.596;10.060;2023-05-07T03:52:39;10.83;;;9.80;;
1682;SDS011;13252;53.596;10.060;2023-05-07T03:55:08;12.37;;;10.47;;
1682;SDS011;13252;53.596;10.060;2023-05-07T03:57:39;11.50;;;10.27;;
1682;SDS011;13252;53.596;10.060;2023-05-07T04:00:07;11.27;;;10.07;;
1682;SDS011;13252;53.596;10.060;2023-05-07T04:02:45;13.80;;;11.57;;
1682;SDS011;13252;53.596;10.060;2023-05-07T04:05:17;13.17;;;11.23;;
1682;SDS011;13252;53.596;10.060;2023-05-07T04:07:50;12.40;;;11.10;;
1682;SDS011;13252;53.596;10.060;2023-05-07T04:10:23;13.80;;;10.83;;
1682;SDS011;13252;53.596;10.060;2023-05-07T04:12:54;14.37;;;11.27;;
1682;SDS011;13252;53.596;10.060;2023-05-07T04:15:24;15.53;;;12.23;;
1682;SDS011;13252;53.596;10.060;2023-05-07T04:17:52;11.03;;;9.80;;
1682;SDS011;13252;53.596;10.060;2023-05-07T04:20:21;12.13;;;10.83;;
1682;SDS011;13252;53.596;10.060;2023-05-07T04:22:57;13.60;;;10.50;;
1682;SDS011;13252;53.596;10.060;2023-05-07T04:25:25;12.63;;;9.47;;
1682;SDS011;13252;53.596;10.060;2023-05-07T04:28:00;10.50;;;9.40;;
1682;SDS011;13252;53.596;10.060;2023-05-07T04:30:28;12.10;;;10.30;;
1682;SDS011;13252;53.596;10.060;2023-05-07T04:32:56;11.83;;;9.63;;
1682;SDS011;13252;53.596;10.060;2023-05-07T04:35:26;10.50;;;9.27;;
1682;SDS011;13252;53.596;10.060;2023-05-07T04:37:54;12.00;;;8.30;;
1682;SDS011;13252;53.596;10.060;2023-05-07T04:40:23;9.77;;;8.77;;
1682;SDS011;13252;53.596;10.060;2023-05-07T04:42:51;10.30;;;8.67;;
1682;SDS011;13252;53.596;10.060;2023-05-07T04:45:20;12.73;;;10.13;;
1682;SDS011;13252;53.596;10.060;2023-05-07T04:47:51;12.17;;;10.33;;
1682;SDS011;13252;53.596;10.060;2023-05-07T04:50:18;12.70;;;10.27;;
1682;SDS011;13252;53.596;10.060;2023-05-07T04:52:47;10.67;;;9.10;;
1682;SDS011;13252;53.596;10.060;2023-05-07T04:55:15;10.40;;;9.23;;
1682;SDS011;13252;53.596;10.060;2023-05-07T04:57:44;12.10;;;9.47;;
1682;SDS011;13252;53.596;10.060;2023-05-07T05:00:14;11.03;;;9.83;;
1682;SDS011;13252;53.596;10.060;2023-05-07T05:02:44;10.80;;;9.13;;
1682;SDS011;13252;53.596;10.060;2023-05-07T05:05:15;11.40;;;10.00;;
1682;SDS011;13252;53.596;10.060;2023-05-07T05:07:44;11.00;;;9.90;;
1682;SDS011;13252;53.596;10.060;2023-05-07T05:10:12;11.87;;;9.70;;
1682;SDS011;13252;53.596;10.060;2023-05-07T05:12:40;10.13;;;8.83;;
1682;SDS011;13252;53.596;10.060;2023-05-07T05:15:10;13.47;;;9.97;;
1682;SDS011;13252;53.596;10.060;2023-05-07T05:17:38;11.93;;;8.87;;
1682;SDS011;13252;53.596;10.060;2023-05-07T05:20:07;9.93;;;8.27;;
1682;SDS011;13252;53.596;10.060;2023-05-07T05:22:37;11.17;;;9.27;;
1682;SDS011;13252;53.596;10.060;2023-05-07T05:25:05;11.50;;;9.67;;
1682;SDS011;13252;53.596;10.060;2023-05-07T05:27:34;11.10;;;9.63;;
1682;SDS011;13252;53.596;10.060;2023-05-07T05:30:01;10.30;;;8.70;;
1682;SDS011;13252;53.596;10.060;2023-05-07T05:32:32;9.33;;;8.13;;
1682;SDS011;13252;53.596;10.060;2023-05-07T05:35:00;13.30;;;9.90;;
1682;SDS011;13252;53.596;10.060;2023-05-07T05:37:29;14.27;;;10.13;;
1682;SDS011;13252;53.596;10.060;2023-05-07T05:39:59;15.70;;;9.67;;
1682;SDS011;13252;53.596;10.060;2023-05-07T05:42:28;10.33;;;9.33;;
1682;SDS011;13252;53.596;10.060;2023-05-07T05:44:56;13.67;;;10.20;;
1682;SDS011;13252;53.596;10.060;2023-05-07T05:47:25;11.63;;;9.73;;
1682;SDS011;13252;53.596;10.060;2023-05-07T05:49:56;11.67;;;9.23;;
1682;SDS011;13252;53.596;10.060;2023-05-07T05:52:24;9.83;;;8.80;;
1682;SDS011;13252;53.596;10.060;2023-05-07T05:54:53;11.40;;;9.33;;
1682;SDS011;13252;53.596;10.060;2023-05-07T05:57:21;10.67;;;9.57;;
1682;SDS011;13252;53.596;10.060;2023-05-07T05:59:51;11.20;;;9.53;;
1682;SDS011;13252;53.596;10.060;2023-05-07T06:02:19;11.53;;;9.47;;
1682;SDS011;13252;53.596;10.060;2023-05-07T06:04:47;11.17;;;8.87;;
1682;SDS011;13252;53.596;10.060;2023-05-07T06:07:19;11.37;;;10.00;;
1682;SDS011;13252;53.596;10.060;2023-05-07T06:09:48;9.30;;;8.30;;
1682;SDS011;13252;53.596;10.060;2023-05-07T06:12:16;9.73;;;8.60;;
1682;SDS011;13252;53.596;10.060;2023-05-07T06:14:46;11.33;;;8.80;;
1682;SDS011;13252;53.596;10.060;2023-05-07T06:17:14;10.00;;;9.00;;
1682;SDS011;13252;53.596;10.060;2023-05-07T06:19:46;17.70;;;9.27;;
1682;SDS011;13252;53.596;10.060;2023-05-07T06:22:16;9.77;;;8.77;;
1682;SDS011;13252;53.596;10.060;2023-05-07T06:24:45;12.30;;;9.03;;
1682;SDS011;13252;53.596;10.060;2023-05-07T06:27:13;10.20;;;8.93;;
1682;SDS011;13252;53.596;10.060;2023-05-07T06:29:40;9.37;;;7.63;;
1682;SDS011;13252;53.596;10.060;2023-05-07T06:32:13;10.80;;;9.03;;
1682;SDS011;13252;53.596;10.060;2023-05-07T06:34:43;16.20;;;8.40;;
1682;SDS011;13252;53.596;10.060;2023-05-07T06:37:12;10.70;;;9.17;;
1682;SDS011;13252;53.596;10.060;2023-05-07T06:39:57;9.90;;;8.20;;
1682;SDS011;13252;53.596;10.060;2023-05-07T06:42:26;10.77;;;8.70;;
1682;SDS011;13252;53.596;10.060;2023-05-07T06:44:58;9.70;;;8.37;;
1682;SDS011;13252;53.596;10.060;2023-05-07T06:47:28;11.20;;;7.97;;
1682;SDS011;13252;53.596;10.060;2023-05-07T06:49:56;10.53;;;8.00;;
1682;SDS011;13252;53.596;10.060;2023-05-07T06:52:29;10.60;;;8.67;;
1682;SDS011;13252;53.596;10.060;2023-05-07T06:54:58;9.03;;;8.13;;
1682;SDS011;13252;53.596;10.060;2023-05-07T06:57:26;8.90;;;8.00;;
1682;SDS011;13252;53.596;10.060;2023-05-07T06:59:53;9.57;;;8.33;;
1682;SDS011;13252;53.596;10.060;2023-05-07T07:02:21;10.10;;;7.47;;
1682;SDS011;13252;53.596;10.060;2023-05-07T07:04:49;8.70;;;7.87;;
1682;SDS011;13252;53.596;10.060;2023-05-07T07:07:18;9.30;;;7.33;;
1682;SDS011;13252;53.596;10.060;2023-05-07T07:09:48;9.13;;;7.83;;
1682;SDS011;13252;53.596;10.060;2023-05-07T07:12:19;9.73;;;7.43;;
1682;SDS011;13252;53.596;10.060;2023-05-07T07:14:48;8.40;;;7.10;;
1682;SDS011;13252;53.596;10.060;2023-05-07T07:17:16;11.50;;;7.50;;
1682;SDS011;13252;53.596;10.060;2023-05-07T07:19:44;9.77;;;7.37;;
1682;SDS011;13252;53.596;10.060;2023-05-07T07:22:11;7.70;;;6.90;;
1682;SDS011;13252;53.596;10.060;2023-05-07T07:24:39;7.23;;;6.13;;
1682;SDS011;13252;53.596;10.060;2023-05-07T07:27:09;11.60;;;8.43;;
1682;SDS011;13252;53.596;10.060;2023-05-07T07:29:38;9.03;;;7.77;;
1682;SDS011;13252;53.596;10.060;2023-05-07T07:32:06;10.93;;;9.27;;
1682;SDS011;13252;53.596;10.060;2023-05-07T07:34:34;10.90;;;6.37;;
1682;SDS011;13252;53.596;10.060;2023-05-07T07:37:02;9.27;;;7.03;;
1682;SDS011;13252;53.596;10.060;2023-05-07T07:39:32;8.47;;;7.10;;
1682;SDS011;13252;53.596;10.060;2023-05-07T07:42:01;9.27;;;7.00;;
1682;SDS011;13252;53.596;10.060;2023-05-07T07:44:29;8.20;;;6.60;;
1682;SDS011;13252;53.596;10.060;2023-05-07T07:47:03;7.77;;;6.57;;
1682;SDS011;13252;53.596;10.060;2023-05-07T07:49:32;8.70;;;6.47;;
1682;SDS011;13252;53.596;10.060;2023-05-07T07:52:03;7.83;;;6.33;;
1682;SDS011;13252;53.596;10.060;2023-05-07T07:54:33;7.63;;;6.80;;
1682;SDS011;13252;53.596;10.060;2023-05-07T07:57:01;8.80;;;6.30;;
1682;SDS011;13252;53.596;10.060;2023-05-07T07:59:31;7.10;;;6.27;;
1682;SDS011;13252;53.596;10.060;2023-05-07T08:01:59;6.13;;;5.53;;
1682;SDS011;13252;53.596;10.060;2023-05-07T08:04:29;6.73;;;5.83;;
1682;SDS011;13252;53.596;10.060;2023-05-07T08:07:02;8.37;;;7.07;;
1682;SDS011;13252;53.596;10.060;2023-05-07T08:09:33;7.70;;;6.60;;
1682;SDS011;13252;53.596;10.060;2023-05-07T08:12:03;7.67;;;6.00;;
1682;SDS011;13252;53.596;10.060;2023-05-07T08:14:32;10.30;;;6.70;;
1682;SDS011;13252;53.596;10.060;2023-05-07T08:17:00;10.20;;;6.67;;
1682;SDS011;13252;53.596;10.060;2023-05-07T08:19:31;7.83;;;6.10;;
1682;SDS011;13252;53.596;10.060;2023-05-07T08:22:00;6.90;;;6.20;;
1682;SDS011;13252;53.596;10.060;2023-05-07T08:24:27;8.10;;;7.27;;
1682;SDS011;13252;53.596;10.060;2023-05-07T08:26:55;8.90;;;7.10;;
1682;SDS011;13252;53.596;10.060;2023-05-07T08:29:23;8.60;;;7.17;;
1682;SDS011;13252;53.596;10.060;2023-05-07T08:31:51;11.00;;;8.67;;
1682;SDS011;13252;53.596;10.060;2023-05-07T08:34:21;8.77;;;7.03;;
1682;SDS011;13252;53.596;10.060;2023-05-07T08:36:52;9.53;;;7.20;;
1682;SDS011;13252;53.596;10.060;2023-05-07T08:39:22;8.73;;;6.63;;
1682;SDS011;13252;53.596;10.060;2023-05-07T08:41:52;8.43;;;7.53;;
1682;SDS011;13252;53.596;10.060;2023-05-07T08:44:23;6.47;;;5.87;;
1682;SDS011;13252;53.596;10.060;2023-05-07T08:46:56;8.23;;;6.10;;
1682;SDS011;13252;53.596;10.060;2023-05-07T08:49:24;8.27;;;6.50;;
1682;SDS011;13252;53.596;10.060;2023-05-07T08:51:54;7.80;;;7.00;;
1682;SDS011;13252;53.596;10.060;2023-05-07T08:54:23;7.10;;;6.23;;
1682;SDS011;13252;53.596;10.060;2023-05-07T08:56:53;6.90;;;5.90;;
1682;SDS011;13252;53.596;10.060;2023-05-07T08:59:21;9.10;;;6.63;;
1682;SDS011;13252;53.596;10.060;2023-05-07T09:01:48;6.60;;;5.93;;
1682;SDS011;13252;53.596;10.060;2023-05-07T09:04:16;6.73;;;6.03;;
1682;SDS011;13252;53.596;10.060;2023-05-07T09:06:44;8.07;;;6.27;;
1682;SDS011;13252;53.596;10.060;2023-05-07T09:09:15;6.63;;;5.50;;
1682;SDS011;13252;53.596;10.060;2023-05-07T09:11:44;6.50;;;5.23;;
1682;SDS011;13252;53.596;10.060;2023-05-07T09:14:14;14.20;;;6.87;;
1682;SDS011;13252;53.596;10.060;2023-05-07T09:16:45;5.53;;;5.00;;
1682;SDS011;13252;53.596;10.060;2023-05-07T09:19:13;5.70;;;5.10;;
1682;SDS011;13252;53.596;10.060;2023-05-07T09:21:44;11.60;;;6.03;;
1682;SDS011;13252;53.596;10.060;2023-05-07T09:24:16;13.80;;;5.70;;
1682;SDS011;13252;53.596;10.060;2023-05-07T09:26:44;6.57;;;5.37;;
1682;SDS011;13252;53.596;10.060;2023-05-07T09:29:15;6.23;;;5.30;;
1682;SDS011;13252;53.596;10.060;2023-05-07T09:31:43;6.70;;;6.00;;
1682;SDS011;13252;53.596;10.060;2023-05-07T09:34:14;5.80;;;5.20;;
1682;SDS011;13252;53.596;10.060;2023-05-07T09:36:44;8.67;;;5.47;;
1682;SDS011;13252;53.596;10.060;2023-05-07T09:39:13;9.23;;;5.70;;
1682;SDS011;13252;53.596;10.060;2023-05-07T09:41:45;5.80;;;5.10;;
1682;SDS011;13252;53.596;10.060;2023-05-07T09:44:31;6.00;;;5.40;;
1682;SDS011;13252;53.596;10.060;2023-05-07T09:46:59;5.37;;;4.87;;
1682;SDS011;13252;53.596;10.060;2023-05-07T09:49:34;6.50;;;5.07;;
1682;SDS011;13252;53.596;10.060;2023-05-07T09:52:06;6.43;;;5.70;;
1682;SDS011;13252;53.596;10.060;2023-05-07T09:54:40;7.17;;;5.50;;
1682;SDS011;13252;53.596;10.060;2023-05-07T09:57:11;5.63;;;4.87;;
1682;SDS011;13252;53.596;10.060;2023-05-07T09:59:42;6.67;;;5.23;;
1682;SDS011;13252;53.596;10.060;2023-05-07T10:02:13;6.03;;;5.00;;
1682;SDS011;13252;53.596;10.060;2023-05-07T10:04:47;5.80;;;4.67;;
1682;SDS011;13252;53.596;10.060;2023-05-07T10:07:19;5.20;;;4.50;;
1682;SDS011;13252;53.596;10.060;2023-05-07T10:09:51;7.43;;;4.43;;
1682;SDS011;13252;53.596;10.060;2023-05-07T10:12:27;5.80;;;4.53;;
1682;SDS011;13252;53.596;10.060;2023-05-07T10:14:56;6.50;;;5.70;;
1682;SDS011;13252;53.596;10.060;2023-05-07T10:17:24;8.60;;;5.17;;
1682;SDS011;13252;53.596;10.060;2023-05-07T10:19:52;5.63;;;4.40;;
1682;SDS011;13252;53.596;10.060;2023-05-07T10:22:21;7.17;;;5.00;;
1682;SDS011;13252;53.596;10.060;2023-05-07T10:24:50;6.47;;;4.80;;
1682;SDS011;13252;53.596;10.060;2023-05-07T10:27:20;5.40;;;4.33;;
1682;SDS011;13252;53.596;10.060;2023-05-07T10:29:58;6.23;;;5.27;;
1682;SDS011;13252;53.596;10.060;2023-05-07T10:32:35;6.00;;;4.43;;
1682;SDS011;13252;53.596;10.060;2023-05-07T10:35:10;8.57;;;5.63;;
1682;SDS011;13252;53.596;10.060;2023-05-07T10:37:39;9.50;;;4.30;;
1682;SDS011;13252;53.596;10.060;2023-05-07T10:40:08;5.93;;;5.20;;
1682;SDS011;13252;53.596;10.060;2023-05-07T10:42:37;5.93;;;5.23;;
1682;SDS011;13252;53.596;10.060;2023-05-07T10:45:13;5.50;;;4.53;;
1682;SDS011;13252;53.596;10.060;2023-05-07T10:54:02;5.50;;;5.00;;
1682;SDS011;13252;53.596;10.060;2023-05-07T10:56:54;6.30;;;5.27;;
1682;SDS011;13252;53.596;10.060;2023-05-07T10:59:36;7.70;;;5.00;;
1682;SDS011;13252;53.596;10.060;2023-05-07T11:02:19;5.60;;;4.37;;
1682;SDS011;13252;53.596;10.060;2023-05-07T11:07:53;4.90;;;4.40;;
1682;SDS011;13252;53.596;10.060;2023-05-07T11:10:26;6.70;;;4.30;;
1682;SDS011;13252;53.596;10.060;2023-05-07T11:16:17;5.20;;;3.50;;
1682;SDS011;13252;53.596;10.060;2023-05-07T11:18:51;4.87;;;3.80;;
1682;SDS011;13252;53.596;10.060;2023-05-07T11:21:32;6.50;;;4.30;;
1682;SDS011;13252;53.596;10.060;2023-05-07T11:24:19;9.87;;;4.20;;
1682;SDS011;13252;53.596;10.060;2023-05-07T11:27:01;5.87;;;3.87;;
1682;SDS011;13252;53.596;10.060;2023-05-07T11:29:30;6.70;;;4.80;;
1682;SDS011;13252;53.596;10.060;2023-05-07T11:32:08;5.23;;;3.80;;
1682;SDS011;13252;53.596;10.060;2023-05-07T11:34:43;5.37;;;3.47;;
1682;SDS011;13252;53.596;10.060;2023-05-07T11:37:11;4.53;;;3.50;;
1682;SDS011;13252;53.596;10.060;2023-05-07T11:40:01;4.87;;;3.50;;
1682;SDS011;13252;53.596;10.060;2023-05-07T11:42:30;5.70;;;3.37;;
1682;SDS011;13252;53.596;10.060;2023-05-07T11:44:58;5.37;;;3.90;;
1682;SDS011;13252;53.596;10.060;2023-05-07T11:47:26;4.50;;;3.70;;
1682;SDS011;13252;53.596;10.060;2023-05-07T11:50:03;7.67;;;3.50;;
1682;SDS011;13252;53.596;10.060;2023-05-07T11:52:32;5.03;;;3.50;;
1682;SDS011;13252;53.596;10.060;2023-05-07T11:55:01;5.43;;;4.00;;
1682;SDS011;13252;53.596;10.060;2023-05-07T11:57:30;4.50;;;3.77;;
1682;SDS011;13252;53.596;10.060;2023-05-07T11:59:58;5.70;;;3.30;;
1682;SDS011;13252;53.596;10.060;2023-05-07T12:02:37;4.70;;;3.13;;
1682;SDS011;13252;53.596;10.060;2023-05-07T12:05:07;4.37;;;2.97;;
1682;SDS011;13252;53.596;10.060;2023-05-07T12:07:36;5.50;;;3.60;;
1682;SDS011;13252;53.596;10.060;2023-05-07T12:10:04;3.57;;;2.77;;
1682;SDS011;13252;53.596;10.060;2023-05-07T12:12:37;4.03;;;3.17;;
1682;SDS011;13252;53.596;10.060;2023-05-07T12:15:06;3.83;;;3.33;;
1682;SDS011;13252;53.596;10.060;2023-05-07T12:17:34;6.57;;;3.20;;
1682;SDS011;13252;53.596;10.060;2023-05-07T12:20:02;4.77;;;3.10;;
1682;SDS011;13252;53.596;10.060;2023-05-07T12:22:32;4.27;;;3.33;;
1682;SDS011;13252;53.596;10.060;2023-05-07T12:25:00;4.50;;;2.80;;
1682;SDS011;13252;53.596;10.060;2023-05-07T12:27:28;5.07;;;2.63;;
1682;SDS011;13252;53.596;10.060;2023-05-07T12:29:56;4.50;;;2.73;;
1682;SDS011;13252;53.596;10.060;2023-05-07T12:32:25;4.20;;;3.07;;
1682;SDS011;13252;53.596;10.060;2023-05-07T12:34:52;3.47;;;2.63;;
1682;SDS011;13252;53.596;10.060;2023-05-07T12:37:23;5.17;;;3.13;;
1682;SDS011;13252;53.596;10.060;2023-05-07T12:40:04;3.17;;;2.33;;
1682;SDS011;13252;53.596;10.060;2023-05-07T12:42:34;3.20;;;2.10;;
1682;SDS011;13252;53.596;10.060;2023-05-07T12:45:09;3.60;;;2.50;;
1682;SDS011;13252;53.596;10.060;2023-05-07T12:47:38;2.70;;;2.10;;
1682;SDS011;13252;53.596;10.060;2023-05-07T12:50:06;6.90;;;2.67;;
1682;SDS011;13252;53.596;10.060;2023-05-07T12:52:34;3.30;;;2.20;;
1682;SDS011;13252;53.596;10.060;2023-05-07T12:55:05;4.50;;;2.40;;
1682;SDS011;13252;53.596;10.060;2023-05-07T12:57:37;3.50;;;2.73;;
1682;SDS011;13252;53.596;10.060;2023-05-07T13:00:06;4.20;;;2.13;;
1682;SDS011;13252;53.596;10.060;2023-05-07T13:02:37;5.43;;;2.83;;
1682;SDS011;13252;53.596;10.060;2023-05-07T13:05:05;4.20;;;2.43;;
1682;SDS011;13252;53.596;10.060;2023-05-07T13:07:34;3.90;;;2.63;;
1682;SDS011;13252;53.596;10.060;2023-05-07T13:10:03;4.80;;;2.40;;
1682;SDS011;13252;53.596;10.060;2023-05-07T13:12:32;9.90;;;2.50;;
1682;SDS011;13252;53.596;10.060;2023-05-07T13:15:00;4.33;;;2.37;;
1682;SDS011;13252;53.596;10.060;2023-05-07T13:17:27;2.80;;;2.10;;
1682;SDS011;13252;53.596;10.060;2023-05-07T13:19:57;3.90;;;2.50;;
1682;SDS011;13252;53.596;10.060;2023-05-07T13:22:25;3.03;;;2.03;;
1682;SDS011;13252;53.596;10.060;2023-05-07T13:24:52;4.70;;;2.80;;
1682;SDS011;13252;53.596;10.060;2023-05-07T13:27:20;3.17;;;2.37;;
1682;SDS011;13252;53.596;10.060;2023-05-07T13:29:49;3.63;;;2.03;;
1682;SDS011;13252;53.596;10.060;2023-05-07T13:32:16;3.80;;;2.20;;
1682;SDS011;13252;53.596;10.060;2023-05-07T13:34:44;2.80;;;1.80;;
1682;SDS011;13252;53.596;10.060;2023-05-07T13:37:12;3.13;;;2.17;;
1682;SDS011;13252;53.596;10.060;2023-05-07T13:39:39;4.03;;;2.00;;
1682;SDS011;13252;53.596;10.060;2023-05-07T13:42:07;3.37;;;2.20;;
1682;SDS011;13252;53.596;10.060;2023-05-07T13:44:35;3.80;;;2.13;;
1682;SDS011;13252;53.596;10.060;2023-05-07T13:47:04;5.90;;;2.27;;
1682;SDS011;13252;53.596;10.060;2023-05-07T13:49:32;3.17;;;2.13;;
1682;SDS011;13252;53.596;10.060;2023-05-07T13:51:59;3.00;;;2.17;;
1682;SDS011;13252;53.596;10.060;2023-05-07T13:54:27;3.53;;;2.07;;
1682;SDS011;13252;53.596;10.060;2023-05-07T13:56:55;3.00;;;2.00;;
1682;SDS011;13252;53.596;10.060;2023-05-07T13:59:23;4.80;;;2.33;;
1682;SDS011;13252;53.596;10.060;2023-05-07T14:01:50;3.37;;;1.97;;
1682;SDS011;13252;53.596;10.060;2023-05-07T14:04:19;3.47;;;2.20;;
1682;SDS011;13252;53.596;10.060;2023-05-07T14:06:47;3.63;;;1.63;;
1682;SDS011;13252;53.596;10.060;2023-05-07T14:09:14;3.60;;;2.50;;
1682;SDS011;13252;53.596;10.060;2023-05-07T14:11:42;2.77;;;1.97;;
1682;SDS011;13252;53.596;10.060;2023-05-07T14:14:10;5.60;;;2.67;;
1682;SDS011;13252;53.596;10.060;2023-05-07T14:16:38;2.93;;;1.93;;
1682;SDS011;13252;53.596;10.060;2023-05-07T14:19:05;8.30;;;2.50;;
1682;SDS011;13252;53.596;10.060;2023-05-07T14:21:34;2.63;;;1.90;;
1682;SDS011;13252;53.596;10.060;2023-05-07T14:24:02;3.50;;;2.00;;
1682;SDS011;13252;53.596;10.060;2023-05-07T14:26:29;3.47;;;2.00;;
1682;SDS011;13252;53.596;10.060;2023-05-07T14:28:57;3.10;;;2.10;;
1682;SDS011;13252;53.596;10.060;2023-05-07T14:31:25;7.00;;;3.50;;
1682;SDS011;13252;53.596;10.060;2023-05-07T14:33:53;3.43;;;2.33;;
1682;SDS011;13252;53.596;10.060;2023-05-07T14:36:20;3.30;;;2.27;;
1682;SDS011;13252;53.596;10.060;2023-05-07T14:38:52;3.87;;;2.20;;
1682;SDS011;13252;53.596;10.060;2023-05-07T14:41:20;3.80;;;2.27;;
1682;SDS011;13252;53.596;10.060;2023-05-07T14:43:47;4.60;;;2.30;;
1682;SDS011;13252;53.596;10.060;2023-05-07T14:46:16;2.93;;;1.83;;
1682;SDS011;13252;53.596;10.060;2023-05-07T14:48:45;4.00;;;2.27;;
1682;SDS011;13252;53.596;10.060;2023-05-07T14:51:13;4.13;;;2.50;;
1682;SDS011;13252;53.596;10.060;2023-05-07T14:53:41;64.57;;;18.77;;
1682;SDS011;13252;53.596;10.060;2023-05-07T14:56:10;6.97;;;3.30;;
1682;SDS011;13252;53.596;10.060;2023-05-07T14:58:37;3.37;;;2.13;;
1682;SDS011;13252;53.596;10.060;2023-05-07T15:01:05;6.10;;;2.33;;
1682;SDS011;13252;53.596;10.060;2023-05-07T15:03:34;3.53;;;2.30;;
1682;SDS011;13252;53.596;10.060;2023-05-07T15:06:02;3.97;;;2.43;;